Time;durP1;ratioP1;P1;durP2;ratioP2;P2;SDS_P1;SDS_P2;PMS_P1;PMS_P2;Temp;Humidity;BMP_temperature;BMP_pressure;BME280_temperature;BME280_humidity;BME280_pressure;Samples;Min_cycle;Max_cycle;Signal;HPM_P1;HPM_P2
2022/01/01 00:00:44;;;;;;;110.30;58.03;;;;;;;;;;5054990;27;99343;-74
2022/01/01 00:03:11;;;;;;;122.57;61.08;;;;;;;;;;5054764;27;99850;-74
2022/01/01 00:05:38;;;;;;;120.40;62.10;;;;;;;;;;5054612;27;99536;-74
2022/01/01 00:08:06;;;;;;;127.25;64.32;;;;;;;;;;5058138;27;99538;-74
2022/01/01 00:10:32;;;;;;;124.07;66.90;;;;;;;;;;5054917;27;98353;-75
2022/01/01 00:13:14;;;;;;;127.95;66.57;;;;;;;;;;5055784;27;98638;-74
2022/01/01 00:15:40;;;;;;;130.65;67.72;;;;;;;;;;5036443;27;99726;-74
2022/01/01 00:18:06;;;;;;;134.60;72.20;;;;;;;;;;5054947;27;98406;-74
2022/01/01 00:20:33;;;;;;;128.63;67.45;;;;;;;;;;5054585;27;99596;-74
2022/01/01 00:22:59;;;;;;;124.65;67.47;;;;;;;;;;5054406;27;99753;-74
2022/01/01 00:25:27;;;;;;;132.38;66.43;;;;;;;;;;5054434;27;98368;-73
2022/01/01 00:27:53;;;;;;;129.48;67.25;;;;;;;;;;5057915;27;99510;-74
2022/01/01 00:30:20;;;;;;;135.50;65.40;;;;;;;;;;5054924;27;98397;-74
2022/01/01 00:32:46;;;;;;;138.70;73.90;;;;;;;;;;5054476;27;99649;-74
2022/01/01 00:35:12;;;;;;;148.35;79.05;;;;;;;;;;5054328;27;99908;-74
2022/01/01 00:37:39;;;;;;;143.77;79.72;;;;;;;;;;5055021;27;97722;-74
2022/01/01 00:40:05;;;;;;;142.30;79.00;;;;;;;;;;5054416;27;98329;-73
2022/01/01 00:42:32;;;;;;;132.48;70.50;;;;;;;;;;5054267;27;99508;-74
2022/01/01 00:44:58;;;;;;;127.28;69.85;;;;;;;;;;5053922;27;99232;-74
2022/01/01 00:47:25;;;;;;;126.90;67.50;;;;;;;;;;5036759;27;99772;-74
2022/01/01 00:49:51;;;;;;;130.43;66.82;;;;;;;;;;5039779;27;99789;-73
2022/01/01 00:52:18;;;;;;;132.25;65.35;;;;;;;;;;5053975;27;99486;-74
2022/01/01 00:54:44;;;;;;;131.00;63.45;;;;;;;;;;5054069;27;99284;-73
2022/01/01 00:57:10;;;;;;;109.00;57.20;;;;;;;;;;5054396;27;98397;-74
2022/01/01 00:59:37;;;;;;;112.95;58.50;;;;;;;;;;5054498;27;99589;-74
2022/01/01 01:02:03;;;;;;;110.82;57.67;;;;;;;;;;5053208;27;98943;-74
2022/01/01 01:04:29;;;;;;;111.45;58.33;;;;;;;;;;5054440;27;98361;-74
2022/01/01 01:06:56;;;;;;;113.35;56.90;;;;;;;;;;5053579;27;99732;-74
2022/01/01 01:09:22;;;;;;;120.88;60.20;;;;;;;;;;5053380;27;100560;-74
2022/01/01 01:11:51;;;;;;;110.00;59.33;;;;;;;;;;5057087;27;98589;-73
2022/01/01 01:14:19;;;;;;;118.20;63.50;;;;;;;;;;5053894;27;99970;-76
2022/01/01 01:16:47;;;;;;;127.97;68.07;;;;;;;;;;5053617;27;98720;-76
2022/01/01 01:19:13;;;;;;;132.55;69.70;;;;;;;;;;5053898;27;99589;-75
2022/01/01 01:21:39;;;;;;;137.75;71.68;;;;;;;;;;5053090;27;99532;-75
2022/01/01 01:24:06;;;;;;;146.30;73.28;;;;;;;;;;5053891;27;98491;-75
2022/01/01 01:26:32;;;;;;;139.30;72.00;;;;;;;;;;5054452;27;99239;-75
2022/01/01 01:29:01;;;;;;;133.30;69.80;;;;;;;;;;5053523;27;99447;-75
2022/01/01 01:31:29;;;;;;;113.82;62.05;;;;;;;;;;5053808;27;98416;-75
2022/01/01 01:33:56;;;;;;;92.78;47.70;;;;;;;;;;5055933;27;99361;-75
2022/01/01 01:36:22;;;;;;;91.28;45.92;;;;;;;;;;5053450;27;98444;-75
2022/01/01 01:38:49;;;;;;;88.47;39.58;;;;;;;;;;5053715;27;99739;-75
2022/01/01 01:41:15;;;;;;;84.95;37.40;;;;;;;;;;5053503;27;99683;-75
2022/01/01 01:43:41;;;;;;;73.05;36.70;;;;;;;;;;5053835;27;99023;-76
2022/01/01 01:46:12;;;;;;;79.80;37.08;;;;;;;;;;5053557;27;99778;-75
2022/01/01 01:48:39;;;;;;;78.90;34.20;;;;;;;;;;5052920;27;99642;-75
2022/01/01 01:51:05;;;;;;;86.20;34.38;;;;;;;;;;5035859;27;97698;-75
2022/01/01 01:53:32;;;;;;;74.57;36.20;;;;;;;;;;5053492;27;99049;-75
2022/01/01 01:56:00;;;;;;;88.22;37.30;;;;;;;;;;5056382;27;99695;-76
2022/01/01 01:58:29;;;;;;;97.35;39.30;;;;;;;;;;5052899;27;99655;-75
2022/01/01 02:03:45;;;;;;;83.00;37.25;;;;;;;;;;5053217;27;98494;-75
2022/01/01 02:06:12;;;;;;;84.85;38.58;;;;;;;;;;5053238;27;100000;-75
2022/01/01 02:08:39;;;;;;;77.63;37.05;;;;;;;;;;5052800;27;99631;-75
2022/01/01 02:11:05;;;;;;;84.50;36.78;;;;;;;;;;5053063;27;98415;-75
2022/01/01 02:13:38;;;;;;;79.13;36.53;;;;;;;;;;5052751;27;99386;-76
2022/01/01 02:16:30;;;;;;;78.63;36.05;;;;;;;;;;5052737;27;99003;-75
2022/01/01 02:18:57;;;;;;;84.75;34.80;;;;;;;;;;5056667;27;98224;-75
2022/01/01 02:21:28;;;;;;;72.30;33.63;;;;;;;;;;5052629;27;100039;-75
2022/01/01 02:23:59;;;;;;;69.32;31.15;;;;;;;;;;5052546;27;99185;-76
2022/01/01 02:26:30;;;;;;;68.43;30.17;;;;;;;;;;5052650;27;100117;-75
2022/01/01 02:28:56;;;;;;;69.73;28.47;;;;;;;;;;5052651;27;100120;-75
2022/01/01 02:31:23;;;;;;;65.20;26.65;;;;;;;;;;5052930;27;98431;-75
2022/01/01 02:33:50;;;;;;;62.60;26.17;;;;;;;;;;5052614;27;99753;-75
2022/01/01 02:36:27;;;;;;;68.05;25.83;;;;;;;;;;5052616;27;99576;-74
2022/01/01 02:38:53;;;;;;;55.90;21.85;;;;;;;;;;5055847;27;98986;-75
2022/01/01 02:41:20;;;;;;;55.22;23.33;;;;;;;;;;5052979;27;99174;-75
2022/01/01 02:43:46;;;;;;;59.85;23.50;;;;;;;;;;5052772;27;98354;-75
2022/01/01 02:46:14;;;;;;;60.60;22.00;;;;;;;;;;5052567;27;99270;-75
2022/01/01 02:48:44;;;;;;;55.50;22.83;;;;;;;;;;5051651;27;101331;-73
2022/01/01 02:51:10;;;;;;;52.85;21.48;;;;;;;;;;5052524;27;98465;-75
2022/01/01 02:53:40;;;;;;;48.45;20.30;;;;;;;;;;5052206;27;99550;-74
2022/01/01 02:56:06;;;;;;;49.67;20.38;;;;;;;;;;5034435;27;99932;-75
2022/01/01 02:58:32;;;;;;;50.47;20.35;;;;;;;;;;5052663;27;98373;-75
2022/01/01 03:00:59;;;;;;;50.50;20.00;;;;;;;;;;5055773;27;98992;-75
2022/01/01 03:03:25;;;;;;;50.63;19.20;;;;;;;;;;5052439;27;98447;-75
2022/01/01 03:05:52;;;;;;;46.88;19.08;;;;;;;;;;5052508;27;99289;-74
2022/01/01 03:08:18;;;;;;;51.80;19.20;;;;;;;;;;5052198;27;99827;-76
2022/01/01 03:10:47;;;;;;;50.95;20.75;;;;;;;;;;5052503;27;98443;-75
2022/01/01 03:13:13;;;;;;;51.78;20.13;;;;;;;;;;5051907;27;99338;-75
2022/01/01 03:15:40;;;;;;;53.33;20.55;;;;;;;;;;5051960;27;99587;-75
2022/01/01 03:18:06;;;;;;;56.78;22.20;;;;;;;;;;5052260;27;98320;-75
2022/01/01 03:20:33;;;;;;;59.42;23.80;;;;;;;;;;5051709;27;99369;-74
2022/01/01 03:22:59;;;;;;;61.40;23.67;;;;;;;;;;5055431;27;99766;-74
2022/01/01 03:25:25;;;;;;;58.70;24.13;;;;;;;;;;5037081;27;99468;-75
2022/01/01 03:27:52;;;;;;;62.53;23.10;;;;;;;;;;5055514;27;99643;-75
2022/01/01 03:30:18;;;;;;;68.25;26.08;;;;;;;;;;5038535;27;97695;-74
2022/01/01 03:32:45;;;;;;;69.57;28.42;;;;;;;;;;5055429;27;98733;-75
2022/01/01 03:35:11;;;;;;;65.97;26.45;;;;;;;;;;5054884;27;100075;-75
2022/01/01 03:37:37;;;;;;;58.80;24.48;;;;;;;;;;5037014;27;99147;-75
2022/01/01 03:40:04;;;;;;;64.70;26.30;;;;;;;;;;5055729;27;100240;-74
2022/01/01 03:42:30;;;;;;;66.45;26.52;;;;;;;;;;5055232;27;99407;-75
2022/01/01 03:44:57;;;;;;;72.80;25.80;;;;;;;;;;5058948;27;98435;-75
2022/01/01 03:47:23;;;;;;;63.20;25.42;;;;;;;;;;5055264;27;99655;-75
2022/01/01 03:49:49;;;;;;;62.30;26.30;;;;;;;;;;5055077;27;98358;-74
2022/01/01 03:52:16;;;;;;;65.75;27.02;;;;;;;;;;5055407;27;99442;-74
2022/01/01 03:54:42;;;;;;;73.97;29.08;;;;;;;;;;5055702;27;99510;-75
2022/01/01 03:57:08;;;;;;;63.22;30.35;;;;;;;;;;5055163;27;98418;-75
2022/01/01 03:59:35;;;;;;;63.00;27.80;;;;;;;;;;5055314;27;99928;-75
2022/01/01 04:02:02;;;;;;;69.80;28.58;;;;;;;;;;5054596;27;100466;-75
2022/01/01 04:04:28;;;;;;;72.95;31.48;;;;;;;;;;5054895;27;98454;-75
2022/01/01 04:06:56;;;;;;;63.38;29.30;;;;;;;;;;5058449;27;98983;-74
2022/01/01 04:09:22;;;;;;;70.20;30.25;;;;;;;;;;5055148;27;98365;-74
2022/01/01 04:11:48;;;;;;;68.32;28.73;;;;;;;;;;5055287;27;99545;-74
2022/01/01 04:14:15;;;;;;;65.05;29.05;;;;;;;;;;5036976;27;99707;-75
2022/01/01 04:16:42;;;;;;;72.75;30.75;;;;;;;;;;5054518;27;98423;-75
2022/01/01 04:19:08;;;;;;;73.90;28.00;;;;;;;;;;5055402;27;99507;-74
2022/01/01 04:21:35;;;;;;;61.97;28.60;;;;;;;;;;5054511;27;99727;-74
2022/01/01 04:24:02;;;;;;;72.55;29.73;;;;;;;;;;5055078;27;98398;-74
2022/01/01 04:26:29;;;;;;;75.30;30.85;;;;;;;;;;5054199;27;100361;-74
2022/01/01 04:28:55;;;;;;;72.50;31.52;;;;;;;;;;5057802;27;99270;-74
2022/01/01 04:31:21;;;;;;;81.15;32.13;;;;;;;;;;5054279;27;100068;-74
2022/01/01 04:33:48;;;;;;;80.50;35.22;;;;;;;;;;5054299;27;99545;-74
2022/01/01 04:36:14;;;;;;;72.32;32.50;;;;;;;;;;5054358;27;98576;-74
2022/01/01 04:38:42;;;;;;;71.13;30.38;;;;;;;;;;5054713;27;98976;-74
2022/01/01 04:41:09;;;;;;;62.05;30.65;;;;;;;;;;5054326;27;100081;-73
2022/01/01 04:43:36;;;;;;;62.97;31.13;;;;;;;;;;5055042;27;97680;-73
2022/01/01 04:46:02;;;;;;;75.20;31.83;;;;;;;;;;5054149;27;98730;-74
2022/01/01 04:48:29;;;;;;;62.90;31.08;;;;;;;;;;5057970;27;98585;-74
2022/01/01 04:50:55;;;;;;;66.30;32.22;;;;;;;;;;5054459;27;99154;-73
2022/01/01 04:53:21;;;;;;;74.00;32.80;;;;;;;;;;5054033;27;99907;-73
2022/01/01 04:55:48;;;;;;;72.15;30.73;;;;;;;;;;5054154;27;98390;-74
2022/01/01 04:58:15;;;;;;;68.57;31.70;;;;;;;;;;5054432;27;99643;-74
2022/01/01 05:00:41;;;;;;;60.65;29.55;;;;;;;;;;5053681;27;99573;-74
2022/01/01 05:03:08;;;;;;;71.18;31.17;;;;;;;;;;5054365;27;98398;-74
2022/01/01 05:05:34;;;;;;;66.07;30.30;;;;;;;;;;5054343;27;98871;-74
2022/01/01 05:08:01;;;;;;;71.05;29.83;;;;;;;;;;5054589;27;98928;-74
2022/01/01 05:10:27;;;;;;;67.38;30.55;;;;;;;;;;5039338;27;98447;-74
2022/01/01 05:12:53;;;;;;;64.45;29.00;;;;;;;;;;5053562;27;99432;-74
2022/01/01 05:15:20;;;;;;;57.33;29.13;;;;;;;;;;5052941;27;99113;-74
2022/01/01 05:17:46;;;;;;;56.72;27.45;;;;;;;;;;5054147;27;99619;-74
2022/01/01 05:20:12;;;;;;;62.13;29.02;;;;;;;;;;5053802;27;99209;-73
2022/01/01 05:22:39;;;;;;;55.63;27.00;;;;;;;;;;5053778;27;98728;-73
2022/01/01 05:25:05;;;;;;;66.50;28.13;;;;;;;;;;5054196;27;99387;-74
2022/01/01 05:27:34;;;;;;;55.10;26.85;;;;;;;;;;5052478;27;100210;-74
2022/01/01 05:30:02;;;;;;;51.45;26.15;;;;;;;;;;5053600;27;98419;-74
2022/01/01 05:32:28;;;;;;;54.17;25.38;;;;;;;;;;5057236;27;99389;-74
2022/01/01 05:34:54;;;;;;;55.83;25.52;;;;;;;;;;5053976;27;98366;-74
2022/01/01 05:37:21;;;;;;;50.53;26.15;;;;;;;;;;5053811;27;99543;-74
2022/01/01 05:39:47;;;;;;;53.30;25.25;;;;;;;;;;5052876;27;100553;-73
2022/01/01 05:42:14;;;;;;;49.53;24.85;;;;;;;;;;5053434;27;98358;-74
2022/01/01 05:44:41;;;;;;;53.35;24.35;;;;;;;;;;5053295;27;99508;-74
2022/01/01 05:47:07;;;;;;;55.05;25.45;;;;;;;;;;5052609;27;99687;-75
2022/01/01 05:49:33;;;;;;;47.65;22.67;;;;;;;;;;5053584;27;98434;-75
2022/01/01 05:52:00;;;;;;;51.22;22.25;;;;;;;;;;5053430;27;99550;-74
2022/01/01 05:54:26;;;;;;;51.72;21.48;;;;;;;;;;5056586;27;99977;-74
2022/01/01 05:56:53;;;;;;;45.28;21.02;;;;;;;;;;5053442;27;99312;-74
2022/01/01 05:59:19;;;;;;;47.03;20.95;;;;;;;;;;5053209;27;99865;-74
2022/01/01 06:01:46;;;;;;;46.25;21.08;;;;;;;;;;5053387;27;99159;-75
2022/01/01 06:04:12;;;;;;;43.78;21.65;;;;;;;;;;5052688;27;99150;-74
2022/01/01 06:06:44;;;;;;;;;;;;;;;;;;5035251;27;101074;-73
2022/01/01 06:09:10;;;;;;;36.63;19.30;;;;;;;;;;5053027;27;118886;-74
2022/01/01 06:11:37;;;;;;;42.03;19.90;;;;;;;;;;5052887;27;99551;-75
2022/01/01 06:14:03;;;;;;;42.08;20.48;;;;;;;;;;5052708;27;100076;-73
2022/01/01 06:16:29;;;;;;;40.70;20.42;;;;;;;;;;5055137;27;98352;-74
2022/01/01 06:18:56;;;;;;;37.83;19.75;;;;;;;;;;5051265;27;99679;-74
2022/01/01 06:21:24;;;;;;;41.25;21.02;;;;;;;;;;5052199;27;97703;-75
2022/01/01 06:23:50;;;;;;;43.63;19.63;;;;;;;;;;5050543;27;98836;-74
2022/01/01 06:26:16;;;;;;;42.45;19.20;;;;;;;;;;5050974;27;99910;-74
2022/01/01 06:28:43;;;;;;;44.08;19.60;;;;;;;;;;5051140;27;99080;-72
2022/01/01 06:31:09;;;;;;;43.05;19.58;;;;;;;;;;5051720;27;100233;-73
2022/01/01 06:33:35;;;;;;;38.53;18.25;;;;;;;;;;5050843;27;99663;-75
2022/01/01 06:36:02;;;;;;;43.70;19.88;;;;;;;;;;5051556;27;98288;-75
2022/01/01 06:38:28;;;;;;;47.80;20.35;;;;;;;;;;5051858;27;99382;-72
2022/01/01 06:40:55;;;;;;;40.22;19.20;;;;;;;;;;5049094;27;99454;-76
2022/01/01 06:43:23;;;;;;;38.55;19.02;;;;;;;;;;5051162;27;99371;-75
2022/01/01 06:45:50;;;;;;;45.42;20.05;;;;;;;;;;5050867;27;99353;-75
2022/01/01 06:48:16;;;;;;;49.00;19.20;;;;;;;;;;5051336;27;98376;-75
2022/01/01 06:50:42;;;;;;;40.47;19.27;;;;;;;;;;5051414;27;99499;-75
2022/01/01 06:53:09;;;;;;;39.78;18.73;;;;;;;;;;5050595;27;99462;-74
2022/01/01 06:55:36;;;;;;;37.97;19.35;;;;;;;;;;5051204;27;98431;-75
2022/01/01 06:58:02;;;;;;;40.33;19.92;;;;;;;;;;5053782;27;99444;-75
2022/01/01 07:00:28;;;;;;;38.25;18.73;;;;;;;;;;5050658;27;98449;-75
2022/01/01 07:02:55;;;;;;;37.97;18.40;;;;;;;;;;5050907;27;99767;-75
2022/01/01 07:05:22;;;;;;;35.03;17.70;;;;;;;;;;5050857;27;99073;-75
2022/01/01 07:07:48;;;;;;;42.75;17.23;;;;;;;;;;5050951;27;98324;-74
2022/01/01 07:10:14;;;;;;;37.83;16.92;;;;;;;;;;5033204;27;100363;-75
2022/01/01 07:12:41;;;;;;;36.40;16.50;;;;;;;;;;5050662;27;99618;-74
2022/01/01 07:17:11;;;;;;;31.88;15.27;;;;;;;;;;5058922;27;86965;-74
2022/01/01 07:19:37;;;;;;;35.05;14.93;;;;;;;;;;5036697;28;88781;-73
2022/01/01 07:22:03;;;;;;;31.33;15.38;;;;;;;;;;5036072;28;89760;-74
2022/01/01 07:24:30;;;;;;;33.17;14.20;;;;;;;;;;5036592;28;88778;-74
2022/01/01 07:26:56;;;;;;;34.25;14.25;;;;;;;;;;5036499;28;90199;-74
2022/01/01 07:29:22;;;;;;;31.70;14.55;;;;;;;;;;5036373;28;89787;-74
2022/01/01 07:31:52;;;;;;;27.90;13.98;;;;;;;;;;5035859;28;89086;-74
2022/01/01 07:34:20;;;;;;;25.58;13.70;;;;;;;;;;5036380;27;90293;-74
2022/01/01 07:36:46;;;;;;;25.10;12.82;;;;;;;;;;5039229;28;89765;-75
2022/01/01 07:39:13;;;;;;;22.83;12.73;;;;;;;;;;5034988;28;93486;-75
2022/01/01 07:41:40;;;;;;;28.23;12.80;;;;;;;;;;5036033;28;91063;-76
2022/01/01 07:44:07;;;;;;;30.90;11.82;;;;;;;;;;5036077;28;88900;-75
2022/01/01 07:46:33;;;;;;;22.20;11.18;;;;;;;;;;5035284;28;89392;-75
2022/01/01 07:48:59;;;;;;;23.27;11.35;;;;;;;;;;5035894;28;89843;-75
2022/01/01 07:51:26;;;;;;;24.50;12.07;;;;;;;;;;5035776;28;88904;-75
2022/01/01 07:53:52;;;;;;;21.30;11.00;;;;;;;;;;5035803;28;90560;-74
2022/01/01 07:56:18;;;;;;;27.23;11.20;;;;;;;;;;5035879;28;89524;-74
2022/01/01 07:58:45;;;;;;;23.50;11.13;;;;;;;;;;5037706;28;88981;-75
2022/01/01 08:01:11;;;;;;;20.85;10.45;;;;;;;;;;5035530;28;89090;-75
2022/01/01 08:03:38;;;;;;;18.75;10.07;;;;;;;;;;5035896;28;88777;-75
2022/01/01 08:06:04;;;;;;;19.20;10.35;;;;;;;;;;5035644;28;90382;-75
2022/01/01 08:08:30;;;;;;;25.25;10.05;;;;;;;;;;5035659;28;90008;-75
2022/01/01 08:10:58;;;;;;;19.05;9.77;;;;;;;;;;5035673;28;88758;-75
2022/01/01 08:13:25;;;;;;;19.05;9.25;;;;;;;;;;5036929;28;90427;-75
2022/01/01 08:15:53;;;;;;;18.58;8.70;;;;;;;;;;5035545;28;88059;-75
2022/01/01 08:18:19;;;;;;;17.98;8.70;;;;;;;;;;5037063;28;87489;-75
2022/01/01 08:20:46;;;;;;;17.17;8.43;;;;;;;;;;5039844;28;88320;-75
2022/01/01 08:23:12;;;;;;;18.95;8.73;;;;;;;;;;5036820;28;86667;-75
2022/01/01 08:25:39;;;;;;;22.83;9.13;;;;;;;;;;5037079;28;88215;-75
2022/01/01 08:28:06;;;;;;;14.30;8.02;;;;;;;;;;5025661;28;87134;-76
2022/01/01 08:30:33;;;;;;;17.38;8.63;;;;;;;;;;5023480;28;87797;-75
2022/01/01 08:33:01;;;;;;;17.98;8.00;;;;;;;;;;5023347;28;88684;-74
2022/01/01 08:35:28;;;;;;;17.35;7.70;;;;;;;;;;5023391;28;88108;-74
2022/01/01 08:37:56;;;;;;;15.00;7.53;;;;;;;;;;5023368;28;88012;-74
2022/01/01 08:40:24;;;;;;;18.10;7.50;;;;;;;;;;5023408;28;88163;-73
2022/01/01 08:42:50;;;;;;;12.07;7.10;;;;;;;;;;5025680;28;87610;-79
2022/01/01 08:45:20;;;;;;;17.30;7.07;;;;;;;;;;5023346;28;87639;-74
2022/01/01 08:47:46;;;;;;;13.85;7.07;;;;;;;;;;5023395;28;87032;-75
2022/01/01 08:50:13;;;;;;;14.98;6.93;;;;;;;;;;5023340;28;87773;-75
2022/01/01 08:52:39;;;;;;;13.18;6.88;;;;;;;;;;5023137;28;88352;-76
2022/01/01 08:55:06;;;;;;;16.52;7.15;;;;;;;;;;5022057;28;87234;-74
2022/01/01 08:57:33;;;;;;;13.45;7.10;;;;;;;;;;5022449;28;88095;-74
2022/01/01 09:00:01;;;;;;;19.85;7.45;;;;;;;;;;5023189;28;88180;-74
2022/01/01 09:02:28;;;;;;;20.65;7.00;;;;;;;;;;5023159;28;87810;-74
2022/01/01 09:04:54;;;;;;;16.27;8.45;;;;;;;;;;5025751;28;87465;-74
2022/01/01 09:07:27;;;;;;;15.10;7.15;;;;;;;;;;5022803;28;87663;-74
2022/01/01 09:09:55;;;;;;;14.85;7.70;;;;;;;;;;5022301;28;87940;-73
2022/01/01 09:12:21;;;;;;;17.95;7.97;;;;;;;;;;5021555;28;91677;-74
2022/01/01 09:14:47;;;;;;;12.73;7.40;;;;;;;;;;5020618;28;89095;-74
2022/01/01 09:17:15;;;;;;;17.70;8.52;;;;;;;;;;5053322;27;87791;-73
2022/01/01 09:19:42;;;;;;;16.08;8.25;;;;;;;;;;5063254;27;86813;-73
2022/01/01 09:22:08;;;;;;;22.52;8.30;;;;;;;;;;5063202;27;87081;-73
2022/01/01 09:24:35;;;;;;;15.60;7.63;;;;;;;;;;5062432;27;88039;-73
2022/01/01 09:27:02;;;;;;;13.82;8.32;;;;;;;;;;5048418;27;87359;-73
2022/01/01 09:29:28;;;;;;;21.13;9.73;;;;;;;;;;5041450;28;86858;-74
2022/01/01 09:31:55;;;;;;;18.25;10.75;;;;;;;;;;5042545;28;88255;-73
2022/01/01 09:34:21;;;;;;;18.35;9.50;;;;;;;;;;5041007;28;89943;-74
2022/01/01 09:36:49;;;;;;;16.17;8.98;;;;;;;;;;5042516;28;87715;-74
2022/01/01 09:39:16;;;;;;;16.25;8.07;;;;;;;;;;5041102;27;88152;-74
2022/01/01 09:41:43;;;;;;;17.45;7.72;;;;;;;;;;5042360;28;87797;-73
2022/01/01 09:44:15;;;;;;;13.02;8.60;;;;;;;;;;5042510;28;87760;-74
2022/01/01 09:46:44;;;;;;;17.55;8.02;;;;;;;;;;5045266;28;87718;-73
2022/01/01 09:49:14;;;;;;;16.55;9.15;;;;;;;;;;5042481;28;87797;-73
2022/01/01 09:51:40;;;;;;;16.13;8.75;;;;;;;;;;5042130;28;87558;-73
2022/01/01 09:54:07;;;;;;;14.70;8.23;;;;;;;;;;5041881;28;87645;-72
2022/01/01 09:56:33;;;;;;;15.27;8.27;;;;;;;;;;5042146;28;88112;-73
2022/01/01 09:59:00;;;;;;;15.48;7.82;;;;;;;;;;5042290;28;88539;-73
2022/01/01 10:01:26;;;;;;;19.13;8.20;;;;;;;;;;5041597;28;87680;-73
2022/01/01 10:03:53;;;;;;;14.18;7.53;;;;;;;;;;5041895;28;86923;-74
2022/01/01 10:06:21;;;;;;;16.35;8.52;;;;;;;;;;5041832;28;87968;-73
2022/01/01 10:08:57;;;;;;;17.70;8.18;;;;;;;;;;5044888;28;87996;-74
2022/01/01 10:11:24;;;;;;;17.27;8.40;;;;;;;;;;5042307;28;87476;-76
2022/01/01 10:13:50;;;;;;;17.33;9.15;;;;;;;;;;5024327;28;87724;-75
2022/01/01 10:16:17;;;;;;;15.10;9.57;;;;;;;;;;5041001;28;87005;-74
2022/01/01 10:18:44;;;;;;;17.77;10.23;;;;;;;;;;5041820;28;87199;-74
2022/01/01 10:21:12;;;;;;;22.40;10.43;;;;;;;;;;5040023;28;89790;-74
2022/01/01 10:23:40;;;;;;;15.50;8.63;;;;;;;;;;5040389;28;88833;-74
2022/01/01 10:29:12;;;;;;;16.17;9.13;;;;;;;;;;5041631;28;87608;-74
2022/01/01 10:31:40;;;;;;;15.90;9.43;;;;;;;;;;5044558;28;87708;-74
2022/01/01 10:34:10;;;;;;;16.40;9.10;;;;;;;;;;5041569;28;86896;-74
2022/01/01 10:36:37;;;;;;;22.67;8.93;;;;;;;;;;5041548;28;87324;-74
2022/01/01 10:39:10;;;;;;;13.90;9.13;;;;;;;;;;5041211;28;88046;-75
2022/01/01 10:41:44;;;;;;;18.30;9.18;;;;;;;;;;5041521;28;87421;-74
2022/01/01 10:44:12;;;;;;;19.17;9.68;;;;;;;;;;5041209;28;88201;-74
2022/01/01 10:46:39;;;;;;;14.90;8.93;;;;;;;;;;5041338;28;88588;-74
2022/01/01 10:49:31;;;;;;;15.27;9.70;;;;;;;;;;5041210;28;87590;-73
2022/01/01 10:52:15;;;;;;;16.40;10.13;;;;;;;;;;5041124;28;87343;-74
2022/01/01 10:54:48;;;;;;;16.25;9.82;;;;;;;;;;5024763;28;89051;-74
2022/01/01 10:57:20;;;;;;;15.38;9.02;;;;;;;;;;5041125;28;87624;-77
2022/01/01 10:59:47;;;;;;;17.55;9.88;;;;;;;;;;5041355;28;88063;-75
2022/01/01 11:02:15;;;;;;;13.35;9.20;;;;;;;;;;5040732;28;87988;-75
2022/01/01 11:04:42;;;;;;;21.02;10.50;;;;;;;;;;5023149;28;88154;-76
2022/01/01 11:07:08;;;;;;;17.02;10.45;;;;;;;;;;5039630;28;89006;-74
2022/01/01 11:09:35;;;;;;;15.40;10.18;;;;;;;;;;5039612;28;90056;-76
2022/01/01 11:12:03;;;;;;;16.73;9.82;;;;;;;;;;5039574;28;88822;-75
2022/01/01 11:14:31;;;;;;;16.67;10.55;;;;;;;;;;5040937;28;90780;-75
2022/01/01 11:17:01;;;;;;;20.42;10.57;;;;;;;;;;5041936;28;89796;-74
2022/01/01 11:19:27;;;;;;;14.55;9.63;;;;;;;;;;5039613;28;89310;-75
2022/01/01 11:21:54;;;;;;;14.57;9.57;;;;;;;;;;5041061;28;86870;-74
2022/01/01 11:24:21;;;;;;;15.07;9.82;;;;;;;;;;5039761;28;89385;-75
2022/01/01 11:26:49;;;;;;;14.85;9.40;;;;;;;;;;5040067;28;87969;-76
2022/01/01 11:29:15;;;;;;;15.57;9.82;;;;;;;;;;5039732;28;88554;-77
2022/01/01 11:31:42;;;;;;;21.98;10.68;;;;;;;;;;5022251;28;89181;-72
2022/01/01 11:34:09;;;;;;;16.75;11.25;;;;;;;;;;5038694;28;88884;-76
2022/01/01 11:36:35;;;;;;;40.67;24.60;;;;;;;;;;5041695;28;90191;-75
2022/01/01 11:39:03;;;;;;;21.45;13.20;;;;;;;;;;5038644;28;90348;-75
2022/01/01 11:41:43;;;;;;;15.27;11.18;;;;;;;;;;5038530;28;89962;-75
2022/01/01 11:44:25;;;;;;;17.30;10.65;;;;;;;;;;5038631;28;89471;-75
2022/01/01 11:46:56;;;;;;;17.60;10.98;;;;;;;;;;5038871;28;88908;-74
2022/01/01 11:49:27;;;;;;;16.75;10.05;;;;;;;;;;5038902;28;89110;-76
2022/01/01 11:52:33;;;;;;;15.05;9.65;;;;;;;;;;5038415;28;89082;-78
2022/01/01 11:55:00;;;;;;;15.95;9.73;;;;;;;;;;5039488;28;90573;-75
2022/01/01 11:57:27;;;;;;;13.55;9.43;;;;;;;;;;5039461;28;88915;-76
2022/01/01 12:00:05;;;;;;;18.20;10.02;;;;;;;;;;5042207;28;89529;-76
2022/01/01 12:02:33;;;;;;;17.27;10.50;;;;;;;;;;5039341;27;89375;-76
2022/01/01 12:05:10;;;;;;;19.23;10.50;;;;;;;;;;5041652;28;89128;-78
2022/01/01 12:07:53;;;;;;;13.50;9.73;;;;;;;;;;5042152;28;90808;-75
2022/01/01 12:10:24;;;;;;;15.10;9.55;;;;;;;;;;5043025;28;89318;-77
2022/01/01 12:13:01;;;;;;;15.90;9.63;;;;;;;;;;5029018;28;89660;-75
2022/01/01 12:15:27;;;;;;;17.20;10.07;;;;;;;;;;5004381;28;89779;-76
2022/01/01 12:17:57;;;;;;;16.27;10.40;;;;;;;;;;5021855;28;89623;-75
2022/01/01 12:20:26;;;;;;;17.15;9.98;;;;;;;;;;5021714;28;89242;-76
2022/01/01 12:22:52;;;;;;;18.20;9.57;;;;;;;;;;5024504;28;90423;-76
2022/01/01 12:25:24;;;;;;;14.80;9.65;;;;;;;;;;5021895;28;89090;-76
2022/01/01 12:27:51;;;;;;;15.05;9.27;;;;;;;;;;5022055;28;89835;-75
2022/01/01 12:30:29;;;;;;;17.55;9.07;;;;;;;;;;5004617;28;89467;-75
2022/01/01 12:32:56;;;;;;;14.45;9.25;;;;;;;;;;5022277;28;89281;-75
2022/01/01 12:35:36;;;;;;;12.00;8.35;;;;;;;;;;5022633;28;87949;-75
2022/01/01 12:38:05;;;;;;;13.05;8.52;;;;;;;;;;5022123;28;89552;-75
2022/01/01 12:40:31;;;;;;;11.90;8.93;;;;;;;;;;5004449;28;90598;-75
2022/01/01 12:43:06;;;;;;;15.23;9.30;;;;;;;;;;5022453;28;88037;-75
2022/01/01 12:45:33;;;;;;;11.55;8.75;;;;;;;;;;5025026;28;88561;-73
2022/01/01 12:48:01;;;;;;;16.77;8.50;;;;;;;;;;5022142;28;88523;-73
2022/01/01 12:50:27;;;;;;;14.02;8.32;;;;;;;;;;5021635;28;88885;-73
2022/01/01 12:52:54;;;;;;;11.73;8.77;;;;;;;;;;5021809;28;89204;-73
2022/01/01 12:55:26;;;;;;;12.93;8.27;;;;;;;;;;5022126;28;87814;-73
2022/01/01 12:58:08;;;;;;;13.38;8.63;;;;;;;;;;5022046;28;89755;-73
2022/01/01 13:00:38;;;;;;;12.63;7.88;;;;;;;;;;5022014;28;89058;-73
2022/01/01 13:03:05;;;;;;;13.82;7.95;;;;;;;;;;5021611;28;88121;-74
2022/01/01 13:05:32;;;;;;;11.93;8.23;;;;;;;;;;5021801;28;90261;-73
2022/01/01 13:08:03;;;;;;;12.45;7.72;;;;;;;;;;5025306;28;88453;-74
2022/01/01 13:10:30;;;;;;;11.75;6.88;;;;;;;;;;5021765;28;88424;-73
2022/01/01 13:12:57;;;;;;;11.82;7.28;;;;;;;;;;5021783;28;88934;-73
2022/01/01 13:15:23;;;;;;;11.13;6.28;;;;;;;;;;5021166;28;88850;-73
2022/01/01 13:17:50;;;;;;;9.07;6.15;;;;;;;;;;5020717;28;90595;-73
2022/01/01 13:20:16;;;;;;;7.25;5.85;;;;;;;;;;5021512;28;89319;-73
2022/01/01 13:22:43;;;;;;;8.95;6.22;;;;;;;;;;5021575;28;88104;-73
2022/01/01 13:25:13;;;;;;;10.70;6.35;;;;;;;;;;5005003;28;88464;-73
2022/01/01 13:27:44;;;;;;;8.18;6.35;;;;;;;;;;5021600;28;89055;-73
2022/01/01 13:30:11;;;;;;;8.83;6.00;;;;;;;;;;5024328;28;88649;-72
2022/01/01 13:32:37;;;;;;;8.40;6.63;;;;;;;;;;5021749;28;88193;-73
2022/01/01 13:35:04;;;;;;;11.70;7.05;;;;;;;;;;5021442;28;88391;-75
2022/01/01 13:37:31;;;;;;;9.27;6.30;;;;;;;;;;5021190;28;88304;-75
2022/01/01 13:39:58;;;;;;;8.95;6.00;;;;;;;;;;5020962;28;90016;-75
2022/01/01 13:42:24;;;;;;;8.32;5.70;;;;;;;;;;5020944;28;88377;-75
2022/01/01 13:44:51;;;;;;;10.05;6.30;;;;;;;;;;5020980;28;89012;-76
2022/01/01 13:47:31;;;;;;;10.57;6.10;;;;;;;;;;5021407;28;89024;-75
2022/01/01 13:49:58;;;;;;;7.47;5.80;;;;;;;;;;5024234;28;87789;-75
2022/01/01 13:52:31;;;;;;;7.03;6.05;;;;;;;;;;5021364;28;88628;-75
2022/01/01 13:54:58;;;;;;;;;;;;;;;;;;5021503;28;88924;-75
2022/01/01 13:57:32;;;;;;;9.85;6.20;;;;;;;;;;5021291;28;88066;-76
2022/01/01 13:59:59;;;;;;;7.25;6.30;;;;;;;;;;5021511;28;89766;-75
2022/01/01 14:02:26;;;;;;;8.20;6.60;;;;;;;;;;5021145;28;87796;-75
2022/01/01 14:04:59;;;;;;;12.18;7.30;;;;;;;;;;5020426;28;89358;-77
2022/01/01 14:07:26;;;;;;;11.57;6.85;;;;;;;;;;5020781;28;89099;-75
2022/01/01 14:09:56;;;;;;;8.32;6.90;;;;;;;;;;5020314;28;88365;-74
2022/01/01 14:12:23;;;;;;;17.13;6.88;;;;;;;;;;5023829;28;89128;-75
2022/01/01 14:14:50;;;;;;;11.18;6.97;;;;;;;;;;5002788;28;89794;-74
2022/01/01 14:17:16;;;;;;;9.52;6.63;;;;;;;;;;5035689;27;89056;-75
2022/01/01 14:19:43;;;;;;;8.48;6.65;;;;;;;;;;5040661;28;89211;-74
2022/01/01 14:22:12;;;;;;;12.70;7.03;;;;;;;;;;5031519;27;89438;-73
2022/01/01 14:24:51;;;;;;;11.15;6.43;;;;;;;;;;5060044;27;88516;-75
2022/01/01 14:27:18;;;;;;;9.93;6.80;;;;;;;;;;5061452;27;87959;-75
2022/01/01 14:29:46;;;;;;;8.30;6.40;;;;;;;;;;5060795;27;88605;-74
2022/01/01 14:32:14;;;;;;;10.23;6.80;;;;;;;;;;5061236;27;89407;-75